Time;durP1;ratioP1;P1;durP2;ratioP2;P2;SDS_P1;SDS_P2;PMS_P1;PMS_P2;Temp;Humidity;BMP_temperature;BMP_pressure;BME280_temperature;BME280_humidity;BME280_pressure;Samples;Min_cycle;Max_cycle;Signal;HPM_P1;HPM_P2
2021/09/09 00:01:15;;;;;;;15.10;9.32;;;21.60;71.70;;;;;;5031851;28;20054;-90
2021/09/09 00:03:42;;;;;;;13.68;9.63;;;21.60;71.70;;;;;;5031813;28;20052;-89
2021/09/09 00:06:10;;;;;;;13.32;8.35;;;21.50;71.90;;;;;;5032129;28;20052;-89
2021/09/09 00:08:37;;;;;;;13.50;8.93;;;21.50;71.90;;;;;;5032415;28;20061;-89
2021/09/09 00:11:04;;;;;;;15.20;9.98;;;21.50;72.00;;;;;;5031803;28;20458;-89
2021/09/09 00:13:31;;;;;;;13.68;10.55;;;21.40;72.10;;;;;;5031472;28;20045;-90
2021/09/09 00:15:58;;;;;;;15.80;10.70;;;21.40;72.20;;;;;;5031877;28;20099;-90
2021/09/09 00:18:25;;;;;;;20.08;12.00;;;21.40;72.40;;;;;;5030699;28;20041;-90
2021/09/09 00:20:52;;;;;;;20.08;13.10;;;21.30;72.50;;;;;;5032513;28;20049;-90
2021/09/09 00:23:19;;;;;;;14.70;10.85;;;21.30;72.80;;;;;;5030606;28;20049;-89
2021/09/09 00:25:46;;;;;;;14.85;11.85;;;21.20;73.20;;;;;;5030467;28;20570;-89
2021/09/09 00:28:13;;;;;;;18.00;12.52;;;21.20;73.20;;;;;;5031275;28;20498;-89
2021/09/09 00:30:40;;;;;;;17.98;13.43;;;21.10;73.20;;;;;;5031550;28;20464;-90
2021/09/09 00:33:08;;;;;;;23.13;12.57;;;21.10;73.30;;;;;;5031815;28;20196;-89
2021/09/09 00:35:37;;;;;;;15.95;11.95;;;21.10;73.30;;;;;;5032127;28;20068;-89
2021/09/09 00:38:05;;;;;;;17.38;12.75;;;21.10;73.40;;;;;;5031422;28;20049;-90
2021/09/09 00:40:32;;;;;;;17.17;12.93;;;21.10;73.50;;;;;;5031381;28;20519;-90
2021/09/09 00:42:59;;;;;;;17.83;11.82;;;21.00;73.60;;;;;;5031146;28;20057;-89
2021/09/09 00:45:27;;;;;;;21.30;12.80;;;21.00;73.70;;;;;;5030475;28;20094;-89
2021/09/09 00:47:54;;;;;;;15.68;13.38;;;21.00;73.80;;;;;;5032174;28;20408;-89
2021/09/09 00:50:21;;;;;;;19.17;13.98;;;20.90;73.90;;;;;;5031242;28;20463;-89
2021/09/09 00:52:50;;;;;;;17.13;12.65;;;20.90;74.20;;;;;;5031193;28;20104;-89
2021/09/09 00:55:18;;;;;;;16.85;12.10;;;20.90;74.30;;;;;;5031079;28;20049;-87
2021/09/09 00:57:46;;;;;;;16.50;13.02;;;20.90;74.30;;;;;;5031363;28;20045;-90
2021/09/09 01:00:14;;;;;;;15.90;12.43;;;20.90;74.40;;;;;;5034392;28;20077;-89
2021/09/09 01:02:41;;;;;;;16.27;11.52;;;20.90;74.40;;;;;;5033949;28;20115;-92
2021/09/09 01:05:09;;;;;;;15.13;11.93;;;20.80;74.50;;;;;;5035387;28;20113;-90
2021/09/09 01:07:36;;;;;;;16.90;10.32;;;20.80;74.50;;;;;;5035240;28;20053;-89
2021/09/09 01:10:03;;;;;;;16.95;12.38;;;20.80;74.50;;;;;;5034867;28;20099;-89
2021/09/09 01:12:31;;;;;;;14.27;10.80;;;20.80;74.40;;;;;;5035374;28;20091;-90
2021/09/09 01:14:58;;;;;;;15.57;10.43;;;20.80;74.40;;;;;;5036119;28;20053;-90
2021/09/09 01:17:25;;;;;;;17.70;10.73;;;20.80;74.40;;;;;;5035205;28;20084;-89
2021/09/09 01:19:52;;;;;;;18.00;12.15;;;20.80;74.50;;;;;;5033750;28;20092;-90
2021/09/09 01:22:19;;;;;;;18.00;11.18;;;20.80;74.50;;;;;;5034871;28;20103;-90
2021/09/09 01:24:45;;;;;;;15.30;10.25;;;20.80;74.60;;;;;;5034591;28;20049;-90
2021/09/09 01:27:16;;;;;;;17.25;11.30;;;20.80;74.70;;;;;;5033981;28;20041;-89
2021/09/09 01:29:44;;;;;;;16.83;10.50;;;20.80;74.80;;;;;;5033784;28;20050;-90
2021/09/09 01:32:12;;;;;;;15.63;10.63;;;20.80;75.00;;;;;;5034744;28;20041;-89
2021/09/09 01:34:39;;;;;;;18.33;9.80;;;20.70;75.10;;;;;;5034822;28;20049;-89
2021/09/09 01:37:07;;;;;;;14.10;9.48;;;20.70;75.30;;;;;;5034667;28;20049;-89
2021/09/09 01:39:33;;;;;;;15.65;9.05;;;20.70;75.40;;;;;;5034292;28;20045;-91
2021/09/09 01:42:00;;;;;;;12.68;9.30;;;20.60;75.50;;;;;;5035242;28;20119;-90
2021/09/09 01:44:29;;;;;;;12.15;8.82;;;20.60;75.70;;;;;;5034707;28;20057;-94
2021/09/09 01:46:57;;;;;;;13.60;8.80;;;20.70;75.80;;;;;;5034569;28;20053;-94
2021/09/09 01:49:24;;;;;;;13.40;9.20;;;20.60;75.90;;;;;;5035276;28;20072;-94
2021/09/09 01:51:51;;;;;;;13.43;9.15;;;20.60;76.00;;;;;;5035587;28;20053;-94
2021/09/09 01:54:18;;;;;;;13.00;8.70;;;20.60;76.10;;;;;;5035007;28;20447;-93
2021/09/09 01:56:45;;;;;;;15.65;8.90;;;20.60;76.20;;;;;;5036347;28;20080;-95
2021/09/09 01:59:12;;;;;;;15.70;9.45;;;20.60;76.40;;;;;;5045095;28;20056;-94
2021/09/09 02:01:39;;;;;;;14.27;9.13;;;20.60;76.50;;;;;;5052589;28;20076;-94
2021/09/09 02:04:06;;;;;;;16.38;9.68;;;20.60;76.50;;;;;;5050342;28;20072;-94
2021/09/09 02:06:34;;;;;;;18.40;9.65;;;20.60;76.70;;;;;;5043029;28;20108;-94
2021/09/09 02:09:02;;;;;;;15.88;8.93;;;20.60;76.90;;;;;;5044133;28;20045;-93
2021/09/09 02:11:29;;;;;;;16.15;9.07;;;20.60;77.00;;;;;;5035131;28;20046;-94
2021/09/09 02:13:56;;;;;;;18.92;10.18;;;20.50;77.00;;;;;;5035192;28;20050;-94
2021/09/09 02:16:23;;;;;;;14.52;9.15;;;20.50;77.00;;;;;;5033881;28;20049;-92
2021/09/09 02:18:50;;;;;;;16.38;9.55;;;20.50;77.10;;;;;;5035113;28;20061;-91
2021/09/09 02:21:17;;;;;;;15.40;10.68;;;20.60;77.00;;;;;;5034526;28;20050;-92
2021/09/09 02:23:44;;;;;;;16.38;8.88;;;20.60;77.10;;;;;;5034895;28;20130;-93
2021/09/09 02:26:11;;;;;;;16.92;9.70;;;20.60;77.10;;;;;;5034517;28;20041;-93
2021/09/09 02:28:38;;;;;;;16.77;9.38;;;20.60;77.00;;;;;;5033587;28;20049;-91
2021/09/09 02:31:05;;;;;;;20.38;9.82;;;20.60;77.00;;;;;;5033569;28;20052;-92
2021/09/09 02:33:32;;;;;;;12.27;9.00;;;20.60;77.00;;;;;;5034301;28;20041;-93
2021/09/09 02:35:59;;;;;;;12.85;9.70;;;20.60;76.90;;;;;;5035350;28;20180;-92
2021/09/09 02:38:26;;;;;;;14.48;9.38;;;20.60;76.80;;;;;;5034060;28;20127;-93
2021/09/09 02:40:53;;;;;;;13.65;8.30;;;20.60;76.80;;;;;;5033516;28;20045;-94
2021/09/09 02:43:20;;;;;;;12.98;9.20;;;20.70;76.80;;;;;;5034179;28;20111;-94
2021/09/09 02:45:47;;;;;;;15.68;9.10;;;20.70;76.80;;;;;;5034743;28;20053;-95
2021/09/09 02:48:14;;;;;;;13.50;8.77;;;20.70;76.80;;;;;;5034510;28;20050;-94
2021/09/09 02:50:41;;;;;;;16.05;9.93;;;20.70;76.80;;;;;;5034249;28;20038;-94
2021/09/09 02:53:08;;;;;;;17.27;11.00;;;20.70;76.80;;;;;;5033980;28;20107;-93
2021/09/09 02:55:35;;;;;;;17.77;9.20;;;20.70;76.80;;;;;;5035402;28;20049;-95
2021/09/09 02:58:02;;;;;;;19.90;11.60;;;20.70;76.90;;;;;;5034233;28;20112;-94
2021/09/09 03:00:29;;;;;;;14.95;10.10;;;20.70;76.90;;;;;;5018331;28;20103;-93
2021/09/09 03:02:56;;;;;;;15.40;9.98;;;20.70;77.00;;;;;;5030718;28;20053;-94
2021/09/09 03:05:23;;;;;;;17.25;11.05;;;20.70;77.00;;;;;;5034463;28;20518;-95
2021/09/09 03:07:50;;;;;;;13.95;9.90;;;20.70;77.10;;;;;;5033500;28;20053;-94
2021/09/09 03:10:16;;;;;;;18.98;10.60;;;20.70;77.10;;;;;;5033964;28;20045;-87
2021/09/09 03:12:43;;;;;;;16.27;10.68;;;20.70;77.20;;;;;;5033794;28;20049;-93
2021/09/09 03:15:10;;;;;;;11.40;8.35;;;20.70;77.20;;;;;;5033696;28;20053;-93
2021/09/09 03:17:37;;;;;;;13.88;9.23;;;20.60;77.30;;;;;;5034236;28;20075;-94
2021/09/09 03:20:05;;;;;;;14.95;9.88;;;20.60;77.30;;;;;;5033457;28;20045;-95
2021/09/09 03:22:32;;;;;;;14.80;10.20;;;20.70;77.40;;;;;;5032407;28;20045;-94
2021/09/09 03:24:59;;;;;;;20.02;11.45;;;20.60;77.40;;;;;;5032536;28;20099;-94
2021/09/09 03:27:26;;;;;;;17.65;10.45;;;20.60;77.50;;;;;;5033516;28;20041;-94
2021/09/09 03:29:53;;;;;;;13.93;10.05;;;20.60;77.50;;;;;;5034080;28;20458;-93
2021/09/09 03:32:20;;;;;;;14.00;10.65;;;20.60;77.60;;;;;;5033267;28;20091;-91
2021/09/09 03:34:47;;;;;;;15.68;11.30;;;20.60;77.60;;;;;;5032959;28;20455;-90
2021/09/09 03:37:13;;;;;;;17.20;11.15;;;20.50;77.60;;;;;;5033211;28;20054;-92
2021/09/09 03:39:40;;;;;;;14.75;9.00;;;20.50;77.60;;;;;;5033152;28;20049;-93
2021/09/09 03:42:07;;;;;;;16.02;10.65;;;20.50;77.70;;;;;;5033225;28;20060;-92
2021/09/09 03:44:34;;;;;;;12.73;9.65;;;20.50;77.70;;;;;;5033428;28;20123;-92
2021/09/09 03:47:01;;;;;;;19.80;9.95;;;20.50;77.70;;;;;;5033097;28;20074;-93
2021/09/09 03:49:28;;;;;;;14.50;9.82;;;20.50;77.80;;;;;;5032722;28;20463;-91
2021/09/09 03:51:55;;;;;;;13.18;9.43;;;20.40;77.80;;;;;;5032804;28;20071;-92
2021/09/09 03:54:21;;;;;;;17.63;11.60;;;20.40;77.90;;;;;;5032929;28;20091;-91
2021/09/09 03:56:48;;;;;;;16.70;10.38;;;20.40;78.00;;;;;;5033409;28;20095;-94
2021/09/09 03:59:15;;;;;;;16.05;10.05;;;20.40;78.00;;;;;;5032773;28;20084;-92
2021/09/09 04:01:42;;;;;;;19.80;11.88;;;20.40;78.00;;;;;;5032319;28;20099;-92
2021/09/09 04:04:09;;;;;;;18.98;12.07;;;20.40;78.10;;;;;;5032207;28;20054;-93
2021/09/09 04:06:36;;;;;;;16.02;11.15;;;20.40;78.10;;;;;;5032649;28;20049;-92
2021/09/09 04:09:03;;;;;;;18.77;11.65;;;20.40;78.20;;;;;;5032704;28;20050;-93
2021/09/09 04:11:30;;;;;;;16.58;11.82;;;20.30;78.20;;;;;;5032155;28;20049;-93
2021/09/09 04:13:57;;;;;;;18.65;10.73;;;20.30;78.30;;;;;;5032532;28;20050;-91
2021/09/09 04:16:24;;;;;;;16.85;11.13;;;20.30;78.30;;;;;;5032264;28;20041;-91
2021/09/09 04:18:51;;;;;;;16.40;11.38;;;20.30;78.40;;;;;;5031884;28;20060;-90
2021/09/09 04:21:18;;;;;;;18.48;11.40;;;20.30;78.50;;;;;;5032206;28;20053;-93
2021/09/09 04:23:45;;;;;;;18.02;12.15;;;20.20;78.50;;;;;;5032925;28;20084;-90
2021/09/09 04:26:11;;;;;;;17.25;11.48;;;20.20;78.50;;;;;;5032366;28;20053;-90
2021/09/09 04:28:38;;;;;;;19.38;11.93;;;20.20;78.60;;;;;;5032326;28;20107;-90
2021/09/09 04:31:05;;;;;;;18.45;10.65;;;20.20;78.60;;;;;;5032176;28;20046;-91
2021/09/09 04:33:33;;;;;;;17.30;10.45;;;20.20;78.70;;;;;;5031735;28;20049;-91
2021/09/09 04:35:59;;;;;;;19.83;10.80;;;20.20;78.70;;;;;;5032886;28;20634;-92
2021/09/09 04:38:26;;;;;;;18.45;11.60;;;20.10;78.70;;;;;;5032128;28;20053;-90
2021/09/09 04:40:53;;;;;;;16.15;10.40;;;20.10;78.70;;;;;;5032140;28;20060;-92
2021/09/09 04:43:20;;;;;;;18.92;11.32;;;20.10;78.70;;;;;;5031745;28;20049;-91
2021/09/09 04:45:47;;;;;;;15.85;10.27;;;20.10;78.80;;;;;;5031903;28;20523;-92
2021/09/09 04:48:14;;;;;;;17.90;11.65;;;20.10;78.80;;;;;;5031776;28;20095;-91
2021/09/09 04:50:41;;;;;;;20.73;10.52;;;20.10;78.80;;;;;;5030387;28;20049;-92
2021/09/09 04:53:08;;;;;;;16.98;10.95;;;20.10;78.80;;;;;;5031860;28;20053;-91
2021/09/09 04:55:35;;;;;;;13.80;9.88;;;20.10;78.80;;;;;;5030793;28;20053;-92
2021/09/09 04:58:02;;;;;;;21.45;9.55;;;20.10;78.70;;;;;;5031815;28;20046;-91
2021/09/09 05:00:29;;;;;;;18.10;10.57;;;20.10;78.70;;;;;;5015293;28;20053;-92
2021/09/09 05:02:56;;;;;;;15.68;10.18;;;20.10;78.70;;;;;;5032254;28;20045;-92
2021/09/09 05:05:23;;;;;;;13.50;9.43;;;20.10;78.70;;;;;;5031919;28;20085;-90
2021/09/09 05:07:50;;;;;;;15.38;9.32;;;20.10;78.60;;;;;;5032027;28;20041;-91
2021/09/09 05:10:17;;;;;;;17.52;9.38;;;20.10;78.60;;;;;;5031693;28;20050;-89
2021/09/09 05:12:44;;;;;;;13.43;10.02;;;20.10;78.50;;;;;;5032032;28;20042;-93
2021/09/09 05:15:11;;;;;;;14.98;9.85;;;20.10;78.50;;;;;;5031807;28;20075;-90
2021/09/09 05:17:38;;;;;;;15.65;10.38;;;20.10;78.50;;;;;;5031819;28;20045;-91
2021/09/09 05:20:06;;;;;;;18.52;10.07;;;20.10;78.50;;;;;;5031565;28;20100;-91
2021/09/09 05:22:34;;;;;;;18.48;9.23;;;20.00;78.50;;;;;;5031565;28;20045;-92
2021/09/09 05:25:02;;;;;;;17.77;10.75;;;20.00;78.40;;;;;;5030549;28;20049;-93
2021/09/09 05:27:29;;;;;;;24.95;10.90;;;20.10;78.40;;;;;;5030611;28;20045;-92
2021/09/09 05:29:56;;;;;;;15.43;11.00;;;20.00;78.40;;;;;;5028117;28;20050;-94
2021/09/09 05:32:23;;;;;;;20.95;10.27;;;20.00;78.40;;;;;;5031236;28;20462;-91
2021/09/09 05:34:51;;;;;;;17.98;10.13;;;20.00;78.40;;;;;;5031599;28;20459;-92
2021/09/09 05:37:18;;;;;;;18.10;10.25;;;20.00;78.30;;;;;;5030487;28;20108;-92
2021/09/09 05:39:45;;;;;;;19.80;11.77;;;20.00;78.30;;;;;;5030497;28;20072;-92
2021/09/09 05:42:11;;;;;;;17.98;10.98;;;19.90;78.40;;;;;;5031501;28;20053;-91
2021/09/09 05:44:38;;;;;;;14.27;10.32;;;19.90;78.40;;;;;;5032036;28;20108;-90
2021/09/09 05:47:05;;;;;;;13.85;9.07;;;19.90;78.40;;;;;;5034597;28;20523;-91
2021/09/09 05:49:32;;;;;;;13.63;9.60;;;19.90;78.40;;;;;;5034658;28;20049;-91
2021/09/09 05:51:59;;;;;;;16.95;9.68;;;19.90;78.30;;;;;;5033774;28;20099;-91
2021/09/09 05:54:26;;;;;;;14.43;10.80;;;19.90;78.30;;;;;;5034934;28;20591;-90
2021/09/09 05:56:53;;;;;;;12.23;8.23;;;19.90;78.20;;;;;;5035372;28;20050;-91
2021/09/09 05:59:20;;;;;;;18.92;10.63;;;19.90;78.20;;;;;;5035296;28;20045;-91
2021/09/09 06:01:49;;;;;;;13.65;9.45;;;19.90;78.10;;;;;;5034459;28;20209;-91
2021/09/09 06:04:18;;;;;;;13.80;9.18;;;19.90;78.10;;;;;;5033190;28;20081;-91
2021/09/09 06:06:45;;;;;;;14.00;10.30;;;19.90;78.10;;;;;;5034467;28;20048;-90
2021/09/09 06:09:12;;;;;;;18.45;11.05;;;19.90;78.20;;;;;;5034549;28;20589;-89
2021/09/09 06:11:38;;;;;;;15.27;10.63;;;19.90;78.20;;;;;;5035084;28;20045;-90
2021/09/09 06:14:06;;;;;;;13.73;10.90;;;19.90;78.30;;;;;;5034171;28;20049;-90
2021/09/09 06:16:33;;;;;;;14.65;10.75;;;19.90;78.40;;;;;;5033731;28;20041;-88
2021/09/09 06:19:00;;;;;;;15.48;11.63;;;19.90;78.50;;;;;;5034180;28;20140;-90
2021/09/09 06:21:27;;;;;;;18.25;10.32;;;19.90;78.60;;;;;;5032177;28;20064;-90
2021/09/09 06:23:55;;;;;;;16.35;10.52;;;19.80;78.70;;;;;;5032775;28;20060;-88
2021/09/09 06:26:22;;;;;;;16.05;10.98;;;19.80;78.80;;;;;;5027497;28;20046;-89
2021/09/09 06:28:49;;;;;;;14.10;9.10;;;19.80;78.80;;;;;;5029995;28;20570;-90
2021/09/09 06:31:16;;;;;;;18.83;12.82;;;19.80;78.80;;;;;;5027351;28;20653;-89
2021/09/09 06:33:43;;;;;;;13.95;10.95;;;19.80;78.80;;;;;;5027550;28;20053;-90
2021/09/09 06:36:10;;;;;;;19.30;11.52;;;19.80;78.80;;;;;;5031373;28;20045;-89
2021/09/09 06:38:37;;;;;;;17.35;11.23;;;19.80;78.90;;;;;;5029852;28;20103;-88
2021/09/09 06:41:04;;;;;;;17.33;10.90;;;19.80;78.90;;;;;;5027493;28;20062;-89
2021/09/09 06:43:31;;;;;;;12.00;9.38;;;19.80;78.90;;;;;;5025190;28;20111;-88
2021/09/09 06:45:58;;;;;;;18.25;13.07;;;19.80;78.90;;;;;;5018994;28;20508;-87
2021/09/09 06:48:25;;;;;;;17.15;11.98;;;19.80;79.00;;;;;;5031018;28;20046;-87
2021/09/09 06:50:52;;;;;;;20.45;11.60;;;19.70;79.30;;;;;;5029545;28;20053;-87
2021/09/09 06:53:19;;;;;;;16.63;12.27;;;19.70;79.50;;;;;;5021659;28;20057;-87
2021/09/09 06:55:47;;;;;;;20.75;14.43;;;19.80;79.60;;;;;;5022919;28;20049;-88
2021/09/09 06:58:14;;;;;;;21.65;12.75;;;19.70;79.70;;;;;;5016179;28;20054;-88
2021/09/09 07:00:45;;;;;;;19.58;12.90;;;19.70;79.80;;;;;;5028922;28;20511;-88
2021/09/09 07:03:13;;;;;;;17.77;12.77;;;19.70;79.90;;;;;;5031862;28;20256;-88
2021/09/09 07:05:40;;;;;;;21.67;13.52;;;19.70;80.10;;;;;;5026309;28;20067;-87
2021/09/09 07:08:07;;;;;;;21.60;14.65;;;19.70;80.20;;;;;;5020796;28;20046;-88
2021/09/09 07:10:34;;;;;;;19.35;13.30;;;19.80;80.40;;;;;;5022062;28;20614;-87
2021/09/09 07:13:01;;;;;;;14.90;12.85;;;19.80;80.50;;;;;;5026951;28;20050;-88
2021/09/09 07:15:28;;;;;;;24.00;14.38;;;19.80;80.60;;;;;;5029481;28;20058;-87
2021/09/09 07:17:55;;;;;;;21.45;13.27;;;19.80;80.60;;;;;;5016677;28;20065;-88
2021/09/09 07:20:22;;;;;;;15.40;10.88;;;19.90;80.70;;;;;;5019116;28;20065;-86
2021/09/09 07:22:49;;;;;;;20.13;13.98;;;19.90;80.70;;;;;;5019670;28;20037;-87
2021/09/09 07:25:16;;;;;;;17.38;13.00;;;19.90;80.80;;;;;;5029480;28;20101;-87
2021/09/09 07:27:43;;;;;;;18.50;12.57;;;19.90;81.00;;;;;;5023494;28;20056;-86
2021/09/09 07:30:10;;;;;;;17.20;11.85;;;19.90;81.20;;;;;;5011463;28;20057;-87
2021/09/09 07:32:38;;;;;;;12.90;10.25;;;19.90;81.30;;;;;;5028140;28;20064;-86
2021/09/09 07:35:05;;;;;;;17.60;12.48;;;20.00;81.40;;;;;;5019876;28;20046;-87
2021/09/09 07:37:33;;;;;;;15.23;10.52;;;20.10;81.40;;;;;;5017261;28;20571;-86
2021/09/09 07:40:00;;;;;;;19.00;11.80;;;20.10;81.50;;;;;;5029208;28;20099;-87
2021/09/09 07:42:27;;;;;;;17.25;11.60;;;20.20;81.40;;;;;;5012175;28;20057;-86
2021/09/09 07:44:54;;;;;;;16.13;11.70;;;20.20;81.40;;;;;;5032620;28;20060;-86
2021/09/09 07:47:24;;;;;;;14.10;10.77;;;20.20;81.40;;;;;;5032901;28;20045;-86
2021/09/09 07:49:51;;;;;;;16.63;10.48;;;20.30;81.40;;;;;;5022881;28;20543;-87
2021/09/09 07:52:18;;;;;;;19.67;10.82;;;20.30;81.30;;;;;;5017021;28;20053;-86
2021/09/09 07:54:45;;;;;;;15.32;10.00;;;20.30;81.30;;;;;;5027975;28;20041;-86
2021/09/09 07:57:12;;;;;;;17.05;12.45;;;20.40;81.40;;;;;;5033032;28;20107;-92
2021/09/09 07:59:39;;;;;;;20.67;11.32;;;20.40;81.40;;;;;;5039680;28;20049;-92
2021/09/09 08:02:06;;;;;;;19.63;10.95;;;20.40;81.40;;;;;;5036047;28;20103;-93
2021/09/09 08:04:34;;;;;;;15.93;11.50;;;20.50;81.40;;;;;;5032591;28;20091;-93
2021/09/09 08:07:02;;;;;;;17.13;11.82;;;20.50;81.40;;;;;;5033504;28;20053;-90
2021/09/09 08:09:29;;;;;;;18.85;10.60;;;20.60;81.50;;;;;;5019002;28;20054;-94
2021/09/09 08:11:56;;;;;;;14.07;9.98;;;20.70;81.40;;;;;;5018296;28;20057;-95
2021/09/09 08:14:23;;;;;;;14.50;10.20;;;20.80;81.30;;;;;;5035852;28;20046;-96
2021/09/09 08:16:51;;;;;;;16.13;10.18;;;20.90;81.10;;;;;;5036926;28;20045;-96
2021/09/09 08:19:19;;;;;;;11.55;9.05;;;20.90;81.10;;;;;;5008651;28;20047;-96
2021/09/09 08:21:46;;;;;;;18.83;9.30;;;21.00;81.00;;;;;;5090343;23;20088;-94
2021/09/09 08:24:13;;;;;;;16.58;10.18;;;21.10;80.90;;;;;;5017583;28;20058;-96
2021/09/09 08:26:40;;;;;;;16.45;9.88;;;21.30;80.80;;;;;;5017829;28;20065;-93
2021/09/09 08:29:08;;;;;;;13.20;9.50;;;21.40;80.60;;;;;;5040866;28;20181;-95
2021/09/09 08:31:36;;;;;;;14.55;9.10;;;21.50;80.50;;;;;;5163146;23;20567;-93
2021/09/09 08:34:06;;;;;;;11.23;7.50;;;21.60;80.40;;;;;;5038012;28;20103;-92
2021/09/09 08:36:33;;;;;;;11.00;7.50;;;21.80;80.40;;;;;;5016663;28;20091;-93
2021/09/09 08:39:00;;;;;;;9.68;6.65;;;21.90;80.10;;;;;;5036092;28;20089;-91
2021/09/09 08:41:29;;;;;;;11.88;7.40;;;22.00;79.80;;;;;;5015617;28;20451;-95
2021/09/09 08:43:56;;;;;;;12.75;6.60;;;22.20;79.30;;;;;;5017885;28;20479;-92
2021/09/09 08:46:24;;;;;;;10.05;6.30;;;22.30;78.90;;;;;;5013167;28;20054;-94
2021/09/09 08:48:54;;;;;;;11.23;5.90;;;22.40;78.60;;;;;;5024195;28;20045;-92
2021/09/09 08:51:23;;;;;;;10.60;5.65;;;22.40;78.20;;;;;;5037131;28;20558;-92
2021/09/09 08:53:52;;;;;;;9.60;5.22;;;22.50;77.80;;;;;;5073502;28;20045;-94
2021/09/09 08:59:00;;;;;;;9.32;4.68;;;22.70;77.00;;;;;;5546911;23;20038;-96
2021/09/09 09:01:27;;;;;;;9.63;4.90;;;22.80;76.80;;;;;;4945234;28;20048;-93
2021/09/09 09:09:57;;;;;;;9.85;4.28;;;23.10;76.00;;;;;;5471134;23;20068;31
2021/09/09 09:20:25;;;;;;;7.10;4.10;;;23.60;74.20;;;;;;5073841;28;20968;-88
2021/09/09 09:22:54;;;;;;;8.77;3.88;;;23.60;73.80;;;;;;5065932;28;20094;-88
2021/09/09 09:25:52;;;;;;;5.20;3.42;;;23.80;73.70;;;;;;5064763;28;20505;-88
2021/09/09 09:28:48;;;;;;;6.15;4.30;;;23.90;73.50;;;;;;5060494;28;20064;-89
2021/09/09 09:31:26;;;;;;;6.95;3.90;;;24.00;73.10;;;;;;5067384;28;20575;-90
2021/09/09 09:33:56;;;;;;;11.43;4.32;;;24.20;72.40;;;;;;5067616;28;20053;-91
2021/09/09 09:36:31;;;;;;;9.00;4.10;;;24.30;72.10;;;;;;5068025;28;20107;-91
2021/09/09 09:39:19;;;;;;;9.15;4.50;;;24.40;72.00;;;;;;5067237;28;20060;-92
2021/09/09 09:41:57;;;;;;;9.70;4.43;;;24.50;71.60;;;;;;5070044;28;20053;-91
2021/09/09 09:44:34;;;;;;;7.82;4.22;;;24.60;71.40;;;;;;5067210;28;20059;-92
2021/09/09 09:47:16;;;;;;;8.80;4.55;;;24.70;71.30;;;;;;5067559;28;20045;-89
2021/09/09 09:49:44;;;;;;;9.70;4.32;;;24.80;71.00;;;;;;5064707;28;20052;-92
2021/09/09 09:52:29;;;;;;;8.52;4.55;;;24.90;70.50;;;;;;5066098;28;20036;-93
2021/09/09 09:54:59;;;;;;;9.27;4.97;;;24.90;70.20;;;;;;5066893;28;20086;-90
2021/09/09 09:57:29;;;;;;;7.20;4.25;;;25.00;69.90;;;;;;5066795;28;20575;-89
2021/09/09 09:59:56;;;;;;;8.20;4.40;;;25.10;69.90;;;;;;5068896;28;20052;-89
2021/09/09 10:02:24;;;;;;;8.45;4.10;;;25.10;69.80;;;;;;5066119;28;20451;-91
2021/09/09 10:04:53;;;;;;;7.63;4.10;;;25.20;69.60;;;;;;5067036;28;20068;-91
2021/09/09 10:07:20;;;;;;;7.32;4.22;;;25.30;69.50;;;;;;5068477;28;20132;-88
2021/09/09 10:09:53;;;;;;;6.50;3.95;;;25.40;69.40;;;;;;5065919;28;20059;-92
2021/09/09 10:12:25;;;;;;;9.73;3.95;;;25.40;69.20;;;;;;5066013;28;20516;-93
2021/09/09 10:14:55;;;;;;;8.73;4.10;;;25.50;69.00;;;;;;5049429;28;20132;-92
2021/09/09 10:17:25;;;;;;;6.95;4.05;;;25.70;68.80;;;;;;5066196;28;20127;-91
2021/09/09 10:19:53;;;;;;;7.95;4.38;;;25.80;68.60;;;;;;5068196;28;20056;-92
2021/09/09 10:22:21;;;;;;;9.63;4.70;;;25.90;68.30;;;;;;5068924;28;20505;-93
2021/09/09 10:24:50;;;;;;;6.32;3.80;;;26.00;68.10;;;;;;5069200;28;20055;-90
2021/09/09 10:27:18;;;;;;;8.25;3.60;;;26.10;67.70;;;;;;5067201;28;20489;-90
2021/09/09 10:29:46;;;;;;;8.75;3.58;;;26.30;67.90;;;;;;5067095;28;20052;-93
2021/09/09 10:32:31;;;;;;;6.95;3.28;;;26.30;67.30;;;;;;5037875;28;20115;-92
2021/09/09 10:35:17;;;;;;;6.65;3.78;;;26.40;67.00;;;;;;5037618;28;20045;-91
2021/09/09 10:37:49;;;;;;;8.20;4.18;;;26.50;66.60;;;;;;5051042;28;20467;-92
2021/09/09 10:40:28;;;;;;;6.75;4.20;;;26.50;66.20;;;;;;5053178;28;20456;-95
2021/09/09 10:42:56;;;;;;;7.05;3.85;;;26.60;66.20;;;;;;5056322;28;20421;-91
2021/09/09 10:45:36;;;;;;;9.73;4.90;;;26.60;66.00;;;;;;5056201;28;20045;-93
2021/09/09 10:48:06;;;;;;;10.75;4.65;;;26.70;66.00;;;;;;5056058;28;20107;-91
2021/09/09 10:50:35;;;;;;;7.70;4.10;;;26.80;66.20;;;;;;5054996;28;20472;-93
2021/09/09 10:53:13;;;;;;;9.77;3.67;;;26.80;66.30;;;;;;5057104;28;20095;-90
2021/09/09 10:55:47;;;;;;;9.38;4.65;;;26.80;66.10;;;;;;5054682;28;20099;-92
2021/09/09 10:58:19;;;;;;;;;;;26.80;65.80;;;;;;5058094;28;20044;-92
2021/09/09 11:00:55;;;;;;;10.02;4.68;;;26.80;65.50;;;;;;5056341;28;20343;-95
2021/09/09 11:03:41;;;;;;;8.57;4.30;;;26.80;65.60;;;;;;5053455;28;20041;-93
2021/09/09 11:06:21;;;;;;;9.57;5.10;;;26.80;65.60;;;;;;5036867;28;20395;-92
2021/09/09 11:08:53;;;;;;;8.80;4.00;;;26.80;65.70;;;;;;5058546;28;20045;-95
2021/09/09 11:11:24;;;;;;;9.77;4.45;;;26.80;65.50;;;;;;5059360;28;20083;-95
2021/09/09 11:14:21;;;;;;;7.97;4.85;;;26.70;65.60;;;;;;5058169;28;20053;-91
2021/09/09 11:16:48;;;;;;;8.18;5.18;;;26.60;65.30;;;;;;5055388;28;20049;-93
2021/09/09 11:19:24;;;;;;;8.77;4.78;;;26.50;65.20;;;;;;5058161;28;20053;-93
2021/09/09 11:21:53;;;;;;;7.22;4.97;;;26.50;65.30;;;;;;5057819;28;20044;-95
2021/09/09 11:24:20;;;;;;;6.95;4.60;;;26.40;65.50;;;;;;5054429;28;20098;-94
2021/09/09 11:26:50;;;;;;;7.80;4.68;;;26.40;65.50;;;;;;5036308;28;20053;-93
2021/09/09 11:29:22;;;;;;;7.95;4.72;;;26.30;65.50;;;;;;5035973;28;20050;-93
2021/09/09 11:31:52;;;;;;;10.63;5.57;;;26.30;65.80;;;;;;5051680;28;20118;-94
2021/09/09 11:34:26;;;;;;;8.77;5.25;;;26.30;65.80;;;;;;5055548;28;20041;-95
2021/09/09 11:36:53;;;;;;;11.85;5.32;;;26.20;65.80;;;;;;5055252;28;20050;-94
2021/09/09 11:39:23;;;;;;;12.90;5.72;;;26.20;66.20;;;;;;5054588;28;20049;-94
2021/09/09 11:41:52;;;;;;;10.73;5.28;;;26.20;66.70;;;;;;5058407;28;20056;-92
2021/09/09 11:44:26;;;;;;;10.55;5.80;;;26.20;66.90;;;;;;5056137;28;20458;-91
2021/09/09 11:46:54;;;;;;;10.90;6.03;;;26.30;67.00;;;;;;5058015;28;20083;-91
2021/09/09 11:49:24;;;;;;;9.85;5.88;;;26.30;67.00;;;;;;5060023;28;20049;-96
2021/09/09 11:51:53;;;;;;;9.23;6.13;;;26.40;66.70;;;;;;5055030;28;20049;-96
2021/09/09 11:54:25;;;;;;;10.10;6.55;;;26.50;66.30;;;;;;5038918;28;20049;-94
2021/09/09 11:57:04;;;;;;;8.48;6.22;;;26.70;66.90;;;;;;5058531;28;20049;-95
2021/09/09 11:59:32;;;;;;;9.73;5.85;;;26.80;66.50;;;;;;5067592;28;20045;-96
2021/09/09 12:02:06;;;;;;;10.52;6.05;;;26.90;66.10;;;;;;5063680;28;20045;-88
2021/09/09 12:04:38;;;;;;;9.50;6.45;;;26.90;65.90;;;;;;5057023;28;20081;-91
2021/09/09 12:07:07;;;;;;;9.52;5.55;;;27.10;65.80;;;;;;5063293;28;20501;-93
2021/09/09 12:09:38;;;;;;;9.60;5.80;;;27.10;64.80;;;;;;5038771;28;20041;-95
2021/09/09 12:12:10;;;;;;;8.55;5.90;;;27.30;64.90;;;;;;5053022;28;20465;-93
2021/09/09 12:14:39;;;;;;;8.13;5.38;;;27.30;64.90;;;;;;5059012;28;20493;-95
2021/09/09 12:17:07;;;;;;;11.35;6.40;;;27.30;64.70;;;;;;5058402;28;20049;-96
2021/09/09 12:19:54;;;;;;;11.75;5.47;;;27.30;64.70;;;;;;5045185;28;20136;-93
2021/09/09 12:22:40;;;;;;;8.93;5.72;;;27.30;64.50;;;;;;5047497;28;20111;-96
2021/09/09 12:25:27;;;;;;;10.52;5.72;;;27.20;64.00;;;;;;5048027;28;20107;-95
2021/09/09 12:28:16;;;;;;;13.07;6.03;;;27.10;64.10;;;;;;5043758;28;20084;-95
2021/09/09 12:30:48;;;;;;;9.88;5.97;;;27.00;64.00;;;;;;5059635;28;20041;-96
2021/09/09 12:33:21;;;;;;;12.85;6.38;;;26.90;64.20;;;;;;5059987;28;20567;-95
2021/09/09 12:36:04;;;;;;;12.95;6.28;;;26.80;64.40;;;;;;5073023;28;20057;-87
2021/09/09 12:38:44;;;;;;;10.88;6.13;;;26.70;64.60;;;;;;5049416;28;20030;-95
2021/09/09 12:41:17;;;;;;;14.65;7.90;;;26.60;64.90;;;;;;5044448;28;20087;-92
2021/09/09 12:43:50;;;;;;;;;;;26.50;65.40;;;;;;5052710;28;20049;-95
2021/09/09 12:46:31;;;;;;;15.20;6.60;;;26.30;66.30;;;;;;5056627;28;19925;-92
2021/09/09 12:49:03;;;;;;;9.85;5.07;;;26.10;67.40;;;;;;5053531;28;20098;-94
2021/09/09 12:51:31;;;;;;;7.55;4.55;;;26.00;68.00;;;;;;5036042;28;20571;-93
2021/09/09 12:53:58;;;;;;;8.88;5.05;;;25.80;68.40;;;;;;5033469;28;20053;-91
2021/09/09 12:56:25;;;;;;;11.45;5.70;;;25.50;69.00;;;;;;5047855;28;20045;-90
2021/09/09 12:58:52;;;;;;;8.05;4.93;;;25.40;69.30;;;;;;5049581;28;20048;-91
2021/09/09 13:01:19;;;;;;;10.02;4.93;;;25.30;69.70;;;;;;5048134;28;20064;-90